sensor_id;sensor_type;location;lat;lon;timestamp;P1;durP1;ratioP1;P2;durP2;ratioP2
48897;SDS011;34713;50.038;20.000;2022-12-29T00:01:33;12.07;;;5.67;;
48897;SDS011;34713;50.038;20.000;2022-12-29T00:04:00;13.48;;;6.10;;
48897;SDS011;34713;50.038;20.000;2022-12-29T00:06:27;13.10;;;6.40;;
48897;SDS011;34713;50.038;20.000;2022-12-29T00:08:53;14.00;;;6.45;;
48897;SDS011;34713;50.038;20.000;2022-12-29T00:11:26;14.47;;;7.65;;
48897;SDS011;34713;50.038;20.000;2022-12-29T00:13:51;16.23;;;7.90;;
48897;SDS011;34713;50.038;20.000;2022-12-29T00:16:37;13.75;;;7.10;;
48897;SDS011;34713;50.038;20.000;2022-12-29T00:19:05;15.60;;;7.60;;
48897;SDS011;34713;50.038;20.000;2022-12-29T00:21:31;15.10;;;7.83;;
48897;SDS011;34713;50.038;20.000;2022-12-29T00:24:17;15.58;;;7.95;;
48897;SDS011;34713;50.038;20.000;2022-12-29T00:29:49;14.87;;;8.40;;
48897;SDS011;34713;50.038;20.000;2022-12-29T00:32:33;15.63;;;7.20;;
48897;SDS011;34713;50.038;20.000;2022-12-29T00:35:22;17.40;;;8.68;;
48897;SDS011;34713;50.038;20.000;2022-12-29T00:38:01;16.05;;;7.87;;
48897;SDS011;34713;50.038;20.000;2022-12-29T00:40:49;13.98;;;7.30;;
48897;SDS011;34713;50.038;20.000;2022-12-29T00:43:33;19.40;;;7.80;;
48897;SDS011;34713;50.038;20.000;2022-12-29T00:46:17;14.70;;;7.30;;
48897;SDS011;34713;50.038;20.000;2022-12-29T00:48:43;14.00;;;6.83;;
48897;SDS011;34713;50.038;20.000;2022-12-29T00:51:27;11.40;;;6.45;;
48897;SDS011;34713;50.038;20.000;2022-12-29T00:53:52;12.98;;;5.90;;
48897;SDS011;34713;50.038;20.000;2022-12-29T00:56:19;12.78;;;5.90;;
48897;SDS011;34713;50.038;20.000;2022-12-29T00:58:44;10.32;;;5.28;;
48897;SDS011;34713;50.038;20.000;2022-12-29T01:01:10;12.00;;;6.83;;
48897;SDS011;34713;50.038;20.000;2022-12-29T01:03:37;12.20;;;5.72;;
48897;SDS011;34713;50.038;20.000;2022-12-29T01:06:05;10.85;;;6.45;;
48897;SDS011;34713;50.038;20.000;2022-12-29T01:08:34;8.80;;;5.22;;
48897;SDS011;34713;50.038;20.000;2022-12-29T01:11:01;12.33;;;6.08;;
48897;SDS011;34713;50.038;20.000;2022-12-29T01:13:34;9.48;;;5.08;;
48897;SDS011;34713;50.038;20.000;2022-12-29T01:16:00;11.18;;;6.12;;
48897;SDS011;34713;50.038;20.000;2022-12-29T01:18:26;11.75;;;5.50;;
48897;SDS011;34713;50.038;20.000;2022-12-29T01:21:04;12.60;;;6.12;;
48897;SDS011;34713;50.038;20.000;2022-12-29T01:23:31;11.55;;;4.80;;
48897;SDS011;34713;50.038;20.000;2022-12-29T01:25:57;10.70;;;4.65;;
48897;SDS011;34713;50.038;20.000;2022-12-29T01:28:25;10.58;;;5.08;;
48897;SDS011;34713;50.038;20.000;2022-12-29T01:30:50;10.13;;;4.50;;
48897;SDS011;34713;50.038;20.000;2022-12-29T01:33:16;9.00;;;4.75;;
48897;SDS011;34713;50.038;20.000;2022-12-29T01:35:42;9.38;;;4.75;;
48897;SDS011;34713;50.038;20.000;2022-12-29T01:38:08;8.58;;;4.60;;
48897;SDS011;34713;50.038;20.000;2022-12-29T01:40:34;8.48;;;4.85;;
48897;SDS011;34713;50.038;20.000;2022-12-29T01:43:11;8.88;;;4.95;;
48897;SDS011;34713;50.038;20.000;2022-12-29T01:45:44;9.55;;;4.60;;
48897;SDS011;34713;50.038;20.000;2022-12-29T01:48:15;8.05;;;4.30;;
48897;SDS011;34713;50.038;20.000;2022-12-29T01:50:46;7.90;;;4.28;;
48897;SDS011;34713;50.038;20.000;2022-12-29T01:53:21;7.80;;;4.50;;
48897;SDS011;34713;50.038;20.000;2022-12-29T01:58:27;8.15;;;4.12;;
48897;SDS011;34713;50.038;20.000;2022-12-29T02:00:55;6.22;;;3.10;;
48897;SDS011;34713;50.038;20.000;2022-12-29T02:03:22;6.95;;;3.12;;
48897;SDS011;34713;50.038;20.000;2022-12-29T02:08:26;5.40;;;3.10;;
48897;SDS011;34713;50.038;20.000;2022-12-29T02:10:55;7.03;;;3.30;;
48897;SDS011;34713;50.038;20.000;2022-12-29T02:13:26;4.10;;;2.77;;
48897;SDS011;34713;50.038;20.000;2022-12-29T02:22:09;5.20;;;2.67;;
48897;SDS011;34713;50.038;20.000;2022-12-29T02:30:38;4.95;;;3.00;;
48897;SDS011;34713;50.038;20.000;2022-12-29T02:39:21;5.17;;;3.15;;
48897;SDS011;34713;50.038;20.000;2022-12-29T02:42:22;4.62;;;3.35;;
48897;SDS011;34713;50.038;20.000;2022-12-29T02:50:59;6.03;;;3.12;;
48897;SDS011;34713;50.038;20.000;2022-12-29T02:53:29;5.45;;;2.98;;
48897;SDS011;34713;50.038;20.000;2022-12-29T02:56:17;5.80;;;3.10;;
48897;SDS011;34713;50.038;20.000;2022-12-29T02:58:43;5.30;;;2.77;;
48897;SDS011;34713;50.038;20.000;2022-12-29T03:24:17;6.67;;;2.92;;
48897;SDS011;34713;50.038;20.000;2022-12-29T03:26:48;5.75;;;2.98;;
48897;SDS011;34713;50.038;20.000;2022-12-29T03:29:15;6.03;;;3.20;;
48897;SDS011;34713;50.038;20.000;2022-12-29T03:31:43;7.15;;;3.55;;
48897;SDS011;34713;50.038;20.000;2022-12-29T03:34:10;4.85;;;2.90;;
48897;SDS011;34713;50.038;20.000;2022-12-29T03:36:48;9.23;;;3.75;;
48897;SDS011;34713;50.038;20.000;2022-12-29T03:39:10;9.68;;;3.50;;
48897;SDS011;34713;50.038;20.000;2022-12-29T03:41:37;6.47;;;3.30;;
48897;SDS011;34713;50.038;20.000;2022-12-29T03:44:10;8.73;;;3.55;;
48897;SDS011;34713;50.038;20.000;2022-12-29T03:46:37;8.33;;;3.77;;
48897;SDS011;34713;50.038;20.000;2022-12-29T03:49:03;9.25;;;3.65;;
48897;SDS011;34713;50.038;20.000;2022-12-29T03:51:29;6.83;;;3.45;;
48897;SDS011;34713;50.038;20.000;2022-12-29T03:53:55;8.53;;;3.87;;
48897;SDS011;34713;50.038;20.000;2022-12-29T03:56:21;8.35;;;3.92;;
48897;SDS011;34713;50.038;20.000;2022-12-29T03:58:46;9.03;;;4.58;;
48897;SDS011;34713;50.038;20.000;2022-12-29T04:01:12;6.60;;;3.58;;
48897;SDS011;34713;50.038;20.000;2022-12-29T04:03:38;7.17;;;3.60;;
48897;SDS011;34713;50.038;20.000;2022-12-29T04:06:04;7.20;;;3.22;;
48897;SDS011;34713;50.038;20.000;2022-12-29T04:08:30;6.90;;;3.42;;
48897;SDS011;34713;50.038;20.000;2022-12-29T04:10:56;7.67;;;3.62;;
48897;SDS011;34713;50.038;20.000;2022-12-29T04:13:22;7.95;;;3.98;;
48897;SDS011;34713;50.038;20.000;2022-12-29T04:15:47;8.70;;;3.85;;
48897;SDS011;34713;50.038;20.000;2022-12-29T04:18:13;6.10;;;3.55;;
48897;SDS011;34713;50.038;20.000;2022-12-29T04:20:39;8.05;;;4.28;;
48897;SDS011;34713;50.038;20.000;2022-12-29T04:23:23;10.37;;;4.73;;
48897;SDS011;34713;50.038;20.000;2022-12-29T04:25:49;6.50;;;4.10;;
48897;SDS011;34713;50.038;20.000;2022-12-29T04:28:15;7.75;;;4.12;;
48897;SDS011;34713;50.038;20.000;2022-12-29T04:30:43;9.28;;;4.67;;
48897;SDS011;34713;50.038;20.000;2022-12-29T04:33:09;9.30;;;4.33;;
48897;SDS011;34713;50.038;20.000;2022-12-29T04:35:35;10.32;;;5.12;;
48897;SDS011;34713;50.038;20.000;2022-12-29T04:38:01;9.30;;;4.62;;
48897;SDS011;34713;50.038;20.000;2022-12-29T04:40:27;8.45;;;4.72;;
48897;SDS011;34713;50.038;20.000;2022-12-29T04:42:53;8.93;;;4.62;;
48897;SDS011;34713;50.038;20.000;2022-12-29T04:45:19;7.45;;;4.53;;
48897;SDS011;34713;50.038;20.000;2022-12-29T04:47:45;8.10;;;4.62;;
48897;SDS011;34713;50.038;20.000;2022-12-29T04:50:11;9.13;;;4.53;;
48897;SDS011;34713;50.038;20.000;2022-12-29T04:52:37;12.53;;;4.83;;
48897;SDS011;34713;50.038;20.000;2022-12-29T04:55:04;9.95;;;4.72;;
48897;SDS011;34713;50.038;20.000;2022-12-29T04:57:31;8.03;;;4.75;;
48897;SDS011;34713;50.038;20.000;2022-12-29T04:59:56;7.83;;;4.55;;
48897;SDS011;34713;50.038;20.000;2022-12-29T05:02:22;9.95;;;4.35;;
48897;SDS011;34713;50.038;20.000;2022-12-29T05:04:48;11.95;;;4.55;;
48897;SDS011;34713;50.038;20.000;2022-12-29T05:07:14;7.42;;;4.47;;
48897;SDS011;34713;50.038;20.000;2022-12-29T05:09:40;9.78;;;4.75;;
48897;SDS011;34713;50.038;20.000;2022-12-29T05:12:06;8.20;;;4.35;;
48897;SDS011;34713;50.038;20.000;2022-12-29T05:14:33;8.13;;;4.28;;
48897;SDS011;34713;50.038;20.000;2022-12-29T05:16:59;9.15;;;4.35;;
48897;SDS011;34713;50.038;20.000;2022-12-29T05:19:24;7.22;;;4.20;;
48897;SDS011;34713;50.038;20.000;2022-12-29T05:21:50;7.80;;;4.17;;
48897;SDS011;34713;50.038;20.000;2022-12-29T05:24:17;7.35;;;4.58;;
48897;SDS011;34713;50.038;20.000;2022-12-29T05:26:42;6.20;;;3.45;;
48897;SDS011;34713;50.038;20.000;2022-12-29T05:29:08;6.30;;;3.72;;
48897;SDS011;34713;50.038;20.000;2022-12-29T05:31:34;8.83;;;3.22;;
48897;SDS011;34713;50.038;20.000;2022-12-29T05:34:00;6.17;;;3.00;;
48897;SDS011;34713;50.038;20.000;2022-12-29T05:36:27;6.40;;;2.87;;
48897;SDS011;34713;50.038;20.000;2022-12-29T05:38:53;4.35;;;2.60;;
48897;SDS011;34713;50.038;20.000;2022-12-29T05:41:18;4.55;;;2.85;;
48897;SDS011;34713;50.038;20.000;2022-12-29T05:43:44;6.62;;;2.80;;
48897;SDS011;34713;50.038;20.000;2022-12-29T05:46:10;4.67;;;2.52;;
48897;SDS011;34713;50.038;20.000;2022-12-29T05:48:36;5.80;;;2.00;;
48897;SDS011;34713;50.038;20.000;2022-12-29T05:51:02;5.50;;;2.70;;
48897;SDS011;34713;50.038;20.000;2022-12-29T05:53:28;5.30;;;2.55;;
48897;SDS011;34713;50.038;20.000;2022-12-29T05:55:54;5.47;;;2.12;;
48897;SDS011;34713;50.038;20.000;2022-12-29T05:58:20;6.17;;;2.62;;
48897;SDS011;34713;50.038;20.000;2022-12-29T06:00:45;7.08;;;2.87;;
48897;SDS011;34713;50.038;20.000;2022-12-29T06:03:11;7.90;;;3.08;;
48897;SDS011;34713;50.038;20.000;2022-12-29T06:05:37;9.53;;;2.80;;
48897;SDS011;34713;50.038;20.000;2022-12-29T06:08:03;7.20;;;2.50;;
48897;SDS011;34713;50.038;20.000;2022-12-29T06:10:29;6.20;;;3.25;;
48897;SDS011;34713;50.038;20.000;2022-12-29T06:12:55;12.95;;;3.75;;
48897;SDS011;34713;50.038;20.000;2022-12-29T06:15:21;7.45;;;3.62;;
48897;SDS011;34713;50.038;20.000;2022-12-29T06:17:47;7.90;;;3.90;;
48897;SDS011;34713;50.038;20.000;2022-12-29T06:20:13;11.45;;;3.65;;
48897;SDS011;34713;50.038;20.000;2022-12-29T06:22:39;9.83;;;3.42;;
48897;SDS011;34713;50.038;20.000;2022-12-29T06:25:05;9.25;;;3.72;;
48897;SDS011;34713;50.038;20.000;2022-12-29T06:27:31;9.53;;;3.47;;
48897;SDS011;34713;50.038;20.000;2022-12-29T06:29:57;8.85;;;4.37;;
48897;SDS011;34713;50.038;20.000;2022-12-29T06:32:23;9.63;;;4.08;;
48897;SDS011;34713;50.038;20.000;2022-12-29T06:34:49;9.60;;;3.75;;
48897;SDS011;34713;50.038;20.000;2022-12-29T06:37:14;9.05;;;3.90;;
48897;SDS011;34713;50.038;20.000;2022-12-29T06:39:40;8.58;;;4.25;;
48897;SDS011;34713;50.038;20.000;2022-12-29T06:42:06;10.03;;;4.00;;
48897;SDS011;34713;50.038;20.000;2022-12-29T06:44:33;7.40;;;3.45;;
48897;SDS011;34713;50.038;20.000;2022-12-29T06:46:59;8.60;;;4.10;;
48897;SDS011;34713;50.038;20.000;2022-12-29T06:49:25;12.18;;;3.92;;
48897;SDS011;34713;50.038;20.000;2022-12-29T06:51:51;9.50;;;4.08;;
48897;SDS011;34713;50.038;20.000;2022-12-29T06:54:17;11.53;;;4.42;;
48897;SDS011;34713;50.038;20.000;2022-12-29T06:56:43;8.20;;;4.67;;
48897;SDS011;34713;50.038;20.000;2022-12-29T06:59:09;8.13;;;4.28;;
48897;SDS011;34713;50.038;20.000;2022-12-29T07:01:35;9.38;;;4.05;;
48897;SDS011;34713;50.038;20.000;2022-12-29T07:04:02;7.90;;;3.70;;
48897;SDS011;34713;50.038;20.000;2022-12-29T07:06:28;14.30;;;4.60;;
48897;SDS011;34713;50.038;20.000;2022-12-29T07:08:54;8.00;;;4.47;;
48897;SDS011;34713;50.038;20.000;2022-12-29T07:11:22;9.58;;;4.25;;
48897;SDS011;34713;50.038;20.000;2022-12-29T07:13:48;12.93;;;4.12;;
48897;SDS011;34713;50.038;20.000;2022-12-29T07:16:14;12.58;;;4.10;;
48897;SDS011;34713;50.038;20.000;2022-12-29T07:18:40;13.83;;;4.85;;
48897;SDS011;34713;50.038;20.000;2022-12-29T07:21:07;12.45;;;4.58;;
48897;SDS011;34713;50.038;20.000;2022-12-29T07:23:32;14.05;;;4.87;;
48897;SDS011;34713;50.038;20.000;2022-12-29T07:26:02;19.25;;;5.08;;
48897;SDS011;34713;50.038;20.000;2022-12-29T07:28:33;16.15;;;5.90;;
48897;SDS011;34713;50.038;20.000;2022-12-29T07:31:01;12.37;;;4.75;;
48897;SDS011;34713;50.038;20.000;2022-12-29T07:33:30;21.48;;;5.28;;
48897;SDS011;34713;50.038;20.000;2022-12-29T07:35:57;16.57;;;4.97;;
48897;SDS011;34713;50.038;20.000;2022-12-29T07:38:24;15.48;;;4.90;;
48897;SDS011;34713;50.038;20.000;2022-12-29T07:40:50;20.17;;;4.90;;
48897;SDS011;34713;50.038;20.000;2022-12-29T07:43:16;14.43;;;4.30;;
48897;SDS011;34713;50.038;20.000;2022-12-29T07:45:42;15.80;;;4.80;;
48897;SDS011;34713;50.038;20.000;2022-12-29T07:48:07;11.90;;;4.45;;
48897;SDS011;34713;50.038;20.000;2022-12-29T07:50:35;9.85;;;4.35;;
48897;SDS011;34713;50.038;20.000;2022-12-29T07:53:01;12.68;;;4.45;;
48897;SDS011;34713;50.038;20.000;2022-12-29T07:55:28;15.45;;;4.95;;
48897;SDS011;34713;50.038;20.000;2022-12-29T07:57:54;13.95;;;4.55;;
48897;SDS011;34713;50.038;20.000;2022-12-29T08:00:21;16.12;;;5.30;;
48897;SDS011;34713;50.038;20.000;2022-12-29T08:02:48;10.65;;;4.75;;
48897;SDS011;34713;50.038;20.000;2022-12-29T08:05:14;11.00;;;4.67;;
48897;SDS011;34713;50.038;20.000;2022-12-29T08:07:44;13.18;;;5.67;;
48897;SDS011;34713;50.038;20.000;2022-12-29T08:10:11;13.03;;;4.37;;
48897;SDS011;34713;50.038;20.000;2022-12-29T08:12:38;16.07;;;5.22;;
48897;SDS011;34713;50.038;20.000;2022-12-29T08:15:05;20.25;;;6.37;;
48897;SDS011;34713;50.038;20.000;2022-12-29T08:17:32;18.90;;;5.37;;
48897;SDS011;34713;50.038;20.000;2022-12-29T08:19:58;12.58;;;5.37;;
48897;SDS011;34713;50.038;20.000;2022-12-29T08:22:24;16.90;;;4.83;;
48897;SDS011;34713;50.038;20.000;2022-12-29T08:24:50;19.12;;;5.58;;
48897;SDS011;34713;50.038;20.000;2022-12-29T08:27:16;11.45;;;4.95;;
48897;SDS011;34713;50.038;20.000;2022-12-29T08:29:43;20.10;;;5.70;;
48897;SDS011;34713;50.038;20.000;2022-12-29T08:32:09;16.17;;;5.42;;
48897;SDS011;34713;50.038;20.000;2022-12-29T08:34:35;17.00;;;5.45;;
48897;SDS011;34713;50.038;20.000;2022-12-29T08:37:00;13.50;;;6.03;;
48897;SDS011;34713;50.038;20.000;2022-12-29T08:39:26;18.30;;;6.05;;
48897;SDS011;34713;50.038;20.000;2022-12-29T08:41:52;19.75;;;5.85;;
48897;SDS011;34713;50.038;20.000;2022-12-29T08:44:18;16.35;;;7.28;;
48897;SDS011;34713;50.038;20.000;2022-12-29T08:46:44;15.03;;;6.28;;
48897;SDS011;34713;50.038;20.000;2022-12-29T08:49:10;14.60;;;6.20;;
48897;SDS011;34713;50.038;20.000;2022-12-29T08:51:36;14.30;;;5.70;;
48897;SDS011;34713;50.038;20.000;2022-12-29T08:54:01;22.22;;;7.37;;
48897;SDS011;34713;50.038;20.000;2022-12-29T08:56:27;22.15;;;6.55;;
48897;SDS011;34713;50.038;20.000;2022-12-29T08:58:53;19.15;;;6.17;;
48897;SDS011;34713;50.038;20.000;2022-12-29T09:01:20;12.18;;;5.53;;
48897;SDS011;34713;50.038;20.000;2022-12-29T09:03:46;18.37;;;6.30;;
48897;SDS011;34713;50.038;20.000;2022-12-29T09:06:13;14.28;;;5.70;;
48897;SDS011;34713;50.038;20.000;2022-12-29T09:08:41;15.95;;;6.00;;
48897;SDS011;34713;50.038;20.000;2022-12-29T09:11:11;20.48;;;6.70;;
48897;SDS011;34713;50.038;20.000;2022-12-29T09:13:43;19.23;;;6.42;;
48897;SDS011;34713;50.038;20.000;2022-12-29T09:16:09;26.30;;;6.85;;
48897;SDS011;34713;50.038;20.000;2022-12-29T09:18:36;15.98;;;5.62;;
48897;SDS011;34713;50.038;20.000;2022-12-29T09:21:03;19.70;;;6.33;;
48897;SDS011;34713;50.038;20.000;2022-12-29T09:23:31;18.55;;;7.35;;
48897;SDS011;34713;50.038;20.000;2022-12-29T09:25:58;18.82;;;6.50;;
48897;SDS011;34713;50.038;20.000;2022-12-29T09:28:24;17.70;;;5.53;;
48897;SDS011;34713;50.038;20.000;2022-12-29T09:30:50;16.65;;;6.25;;
48897;SDS011;34713;50.038;20.000;2022-12-29T09:33:16;25.65;;;7.25;;
48897;SDS011;34713;50.038;20.000;2022-12-29T09:35:44;20.37;;;6.60;;
48897;SDS011;34713;50.038;20.000;2022-12-29T09:38:12;20.40;;;7.85;;
48897;SDS011;34713;50.038;20.000;2022-12-29T09:40:40;15.88;;;6.58;;
48897;SDS011;34713;50.038;20.000;2022-12-29T09:43:11;19.12;;;6.50;;
48897;SDS011;34713;50.038;20.000;2022-12-29T09:49:04;22.10;;;7.03;;
48897;SDS011;34713;50.038;20.000;2022-12-29T09:51:27;19.27;;;7.15;;
48897;SDS011;34713;50.038;20.000;2022-12-29T09:53:58;24.43;;;7.22;;
48897;SDS011;34713;50.038;20.000;2022-12-29T09:56:31;14.63;;;5.97;;
48897;SDS011;34713;50.038;20.000;2022-12-29T09:58:59;21.27;;;6.42;;
48897;SDS011;34713;50.038;20.000;2022-12-29T10:01:41;13.28;;;5.80;;
48897;SDS011;34713;50.038;20.000;2022-12-29T10:04:28;14.98;;;5.28;;
48897;SDS011;34713;50.038;20.000;2022-12-29T10:06:56;14.15;;;5.25;;
48897;SDS011;34713;50.038;20.000;2022-12-29T10:15:12;9.20;;;4.15;;
48897;SDS011;34713;50.038;20.000;2022-12-29T10:18:03;8.28;;;4.33;;
48897;SDS011;34713;50.038;20.000;2022-12-29T10:20:50;6.83;;;4.25;;
48897;SDS011;34713;50.038;20.000;2022-12-29T10:23:43;7.37;;;3.80;;
48897;SDS011;34713;50.038;20.000;2022-12-29T10:26:10;7.00;;;3.87;;
48897;SDS011;34713;50.038;20.000;2022-12-29T10:31:28;8.70;;;4.15;;
48897;SDS011;34713;50.038;20.000;2022-12-29T10:33:51;8.48;;;4.10;;
48897;SDS011;34713;50.038;20.000;2022-12-29T10:44:38;7.17;;;3.67;;
48897;SDS011;34713;50.038;20.000;2022-12-29T10:47:06;6.87;;;3.85;;
48897;SDS011;34713;50.038;20.000;2022-12-29T10:49:42;8.98;;;4.45;;
48897;SDS011;34713;50.038;20.000;2022-12-29T10:52:10;9.85;;;4.53;;
48897;SDS011;34713;50.038;20.000;2022-12-29T10:54:39;7.17;;;4.45;;
48897;SDS011;34713;50.038;20.000;2022-12-29T10:57:36;10.35;;;4.85;;
48897;SDS011;34713;50.038;20.000;2022-12-29T11:00:10;10.25;;;4.55;;
48897;SDS011;34713;50.038;20.000;2022-12-29T11:08:11;9.23;;;4.05;;
48897;SDS011;34713;50.038;20.000;2022-12-29T11:10:42;10.08;;;4.47;;
48897;SDS011;34713;50.038;20.000;2022-12-29T11:13:14;9.88;;;4.97;;
48897;SDS011;34713;50.038;20.000;2022-12-29T11:15:47;9.03;;;4.70;;
48897;SDS011;34713;50.038;20.000;2022-12-29T11:18:22;6.78;;;4.00;;
48897;SDS011;34713;50.038;20.000;2022-12-29T11:20:55;7.65;;;4.67;;
48897;SDS011;34713;50.038;20.000;2022-12-29T11:28:46;7.97;;;4.62;;
48897;SDS011;34713;50.038;20.000;2022-12-29T11:31:15;8.95;;;4.40;;
48897;SDS011;34713;50.038;20.000;2022-12-29T11:33:43;8.90;;;4.87;;
48897;SDS011;34713;50.038;20.000;2022-12-29T11:36:20;8.95;;;5.20;;
48897;SDS011;34713;50.038;20.000;2022-12-29T11:38:49;10.25;;;4.85;;
48897;SDS011;34713;50.038;20.000;2022-12-29T11:41:30;13.58;;;5.20;;
48897;SDS011;34713;50.038;20.000;2022-12-29T11:43:56;11.22;;;5.25;;
48897;SDS011;34713;50.038;20.000;2022-12-29T11:46:30;11.60;;;5.35;;
48897;SDS011;34713;50.038;20.000;2022-12-29T11:49:00;12.00;;;5.47;;
48897;SDS011;34713;50.038;20.000;2022-12-29T11:51:36;11.22;;;5.70;;
48897;SDS011;34713;50.038;20.000;2022-12-29T11:54:05;10.05;;;4.80;;
48897;SDS011;34713;50.038;20.000;2022-12-29T11:56:36;8.15;;;4.62;;
48897;SDS011;34713;50.038;20.000;2022-12-29T12:02:10;7.10;;;4.22;;
48897;SDS011;34713;50.038;20.000;2022-12-29T12:04:50;10.05;;;4.08;;
48897;SDS011;34713;50.038;20.000;2022-12-29T12:07:21;8.10;;;3.50;;
48897;SDS011;34713;50.038;20.000;2022-12-29T12:10:09;8.13;;;3.55;;
48897;SDS011;34713;50.038;20.000;2022-12-29T12:12:51;5.90;;;3.17;;
48897;SDS011;34713;50.038;20.000;2022-12-29T12:21:10;5.20;;;2.90;;
48897;SDS011;34713;50.038;20.000;2022-12-29T12:26:32;6.67;;;3.15;;
48897;SDS011;34713;50.038;20.000;2022-12-29T12:29:14;5.83;;;3.10;;
48897;SDS011;34713;50.038;20.000;2022-12-29T12:31:50;4.37;;;2.87;;
48897;SDS011;34713;50.038;20.000;2022-12-29T12:34:38;4.97;;;2.98;;
48897;SDS011;34713;50.038;20.000;2022-12-29T12:40:05;4.10;;;2.72;;
48897;SDS011;34713;50.038;20.000;2022-12-29T12:54:49;6.17;;;3.10;;
48897;SDS011;34713;50.038;20.000;2022-12-29T13:00:20;6.25;;;3.58;;
48897;SDS011;34713;50.038;20.000;2022-12-29T13:03:03;5.58;;;3.30;;
48897;SDS011;34713;50.038;20.000;2022-12-29T13:11:39;6.37;;;3.40;;
48897;SDS011;34713;50.038;20.000;2022-12-29T13:16:50;7.92;;;3.50;;
48897;SDS011;34713;50.038;20.000;2022-12-29T13:28:09;8.15;;;3.35;;
48897;SDS011;34713;50.038;20.000;2022-12-29T13:36:27;6.67;;;3.30;;
48897;SDS011;34713;50.038;20.000;2022-12-29T13:39:17;5.78;;;3.33;;
48897;SDS011;34713;50.038;20.000;2022-12-29T13:41:54;6.30;;;3.65;;
48897;SDS011;34713;50.038;20.000;2022-12-29T13:44:23;4.87;;;3.20;;
48897;SDS011;34713;50.038;20.000;2022-12-29T13:50:04;5.03;;;3.00;;
48897;SDS011;34713;50.038;20.000;2022-12-29T13:52:49;7.30;;;3.30;;
48897;SDS011;34713;50.038;20.000;2022-12-29T14:04:22;6.42;;;3.58;;
48897;SDS011;34713;50.038;20.000;2022-12-29T14:09:45;5.78;;;3.45;;
48897;SDS011;34713;50.038;20.000;2022-12-29T14:17:40;8.65;;;3.85;;
48897;SDS011;34713;50.038;20.000;2022-12-29T14:20:22;5.25;;;3.15;;
48897;SDS011;34713;50.038;20.000;2022-12-29T14:28:28;8.83;;;3.85;;
48897;SDS011;34713;50.038;20.000;2022-12-29T14:30:56;7.45;;;3.40;;
48897;SDS011;34713;50.038;20.000;2022-12-29T14:33:26;6.45;;;3.40;;
48897;SDS011;34713;50.038;20.000;2022-12-29T14:36:18;8.98;;;3.67;;
48897;SDS011;34713;50.038;20.000;2022-12-29T14:38:45;6.40;;;3.37;;
48897;SDS011;34713;50.038;20.000;2022-12-29T14:41:16;7.58;;;3.75;;
48897;SDS011;34713;50.038;20.000;2022-12-29T14:44:19;5.17;;;3.15;;
48897;SDS011;34713;50.038;20.000;2022-12-29T14:49:23;6.87;;;3.92;;
48897;SDS011;34713;50.038;20.000;2022-12-29T14:51:53;5.90;;;4.20;;
48897;SDS011;34713;50.038;20.000;2022-12-29T14:54:45;5.37;;;3.67;;
48897;SDS011;34713;50.038;20.000;2022-12-29T14:57:06;7.03;;;3.55;;
48897;SDS011;34713;50.038;20.000;2022-12-29T14:59:42;10.15;;;4.30;;
48897;SDS011;34713;50.038;20.000;2022-12-29T15:02:17;6.33;;;3.70;;
48897;SDS011;34713;50.038;20.000;2022-12-29T15:04:46;8.53;;;4.03;;
48897;SDS011;34713;50.038;20.000;2022-12-29T15:07:13;7.60;;;3.27;;
48897;SDS011;34713;50.038;20.000;2022-12-29T15:15:16;5.65;;;3.80;;
48897;SDS011;34713;50.038;20.000;2022-12-29T15:17:48;8.15;;;3.92;;
48897;SDS011;34713;50.038;20.000;2022-12-29T15:20:28;5.37;;;3.37;;
48897;SDS011;34713;50.038;20.000;2022-12-29T15:25:28;11.78;;;5.90;;
48897;SDS011;34713;50.038;20.000;2022-12-29T15:28:02;8.80;;;5.05;;
48897;SDS011;34713;50.038;20.000;2022-12-29T15:30:32;11.05;;;6.47;;
48897;SDS011;34713;50.038;20.000;2022-12-29T15:32:58;9.93;;;5.87;;
48897;SDS011;34713;50.038;20.000;2022-12-29T15:35:29;12.45;;;6.45;;
48897;SDS011;34713;50.038;20.000;2022-12-29T15:38:13;9.85;;;5.83;;
48897;SDS011;34713;50.038;20.000;2022-12-29T15:40:41;9.73;;;6.10;;
48897;SDS011;34713;50.038;20.000;2022-12-29T15:46:01;12.60;;;7.05;;
48897;SDS011;34713;50.038;20.000;2022-12-29T15:48:28;12.07;;;6.67;;
48897;SDS011;34713;50.038;20.000;2022-12-29T15:50:55;12.78;;;6.55;;
48897;SDS011;34713;50.038;20.000;2022-12-29T15:53:26;10.70;;;5.95;;
48897;SDS011;34713;50.038;20.000;2022-12-29T15:55:59;8.85;;;5.67;;
48897;SDS011;34713;50.038;20.000;2022-12-29T15:58:29;12.68;;;6.37;;
48897;SDS011;34713;50.038;20.000;2022-12-29T16:00:59;11.40;;;5.92;;
48897;SDS011;34713;50.038;20.000;2022-12-29T16:03:27;12.47;;;7.20;;
48897;SDS011;34713;50.038;20.000;2022-12-29T16:06:09;13.50;;;6.80;;
48897;SDS011;34713;50.038;20.000;2022-12-29T16:08:36;10.20;;;6.15;;
48897;SDS011;34713;50.038;20.000;2022-12-29T16:11:50;14.23;;;5.78;;
48897;SDS011;34713;50.038;20.000;2022-12-29T16:13:48;9.95;;;5.87;;
48897;SDS011;34713;50.038;20.000;2022-12-29T16:16:17;9.88;;;5.72;;
48897;SDS011;34713;50.038;20.000;2022-12-29T16:18:47;9.20;;;5.58;;
48897;SDS011;34713;50.038;20.000;2022-12-29T16:21:16;11.63;;;6.37;;
48897;SDS011;34713;50.038;20.000;2022-12-29T16:23:51;8.28;;;5.50;;
48897;SDS011;34713;50.038;20.000;2022-12-29T16:26:20;10.28;;;5.58;;
48897;SDS011;34713;50.038;20.000;2022-12-29T16:28:49;8.25;;;5.20;;
48897;SDS011;34713;50.038;20.000;2022-12-29T16:31:21;11.15;;;6.60;;
48897;SDS011;34713;50.038;20.000;2022-12-29T16:33:52;10.05;;;5.87;;
48897;SDS011;34713;50.038;20.000;2022-12-29T16:36:25;10.40;;;6.25;;
48897;SDS011;34713;50.038;20.000;2022-12-29T16:47:51;20.27;;;8.00;;
48897;SDS011;34713;50.038;20.000;2022-12-29T16:50:41;15.15;;;7.85;;
48897;SDS011;34713;50.038;20.000;2022-12-29T16:53:24;13.80;;;7.12;;
48897;SDS011;34713;50.038;20.000;2022-12-29T16:55:57;16.15;;;7.87;;
48897;SDS011;34713;50.038;20.000;2022-12-29T16:58:29;18.77;;;7.60;;
48897;SDS011;34713;50.038;20.000;2022-12-29T17:00:57;13.60;;;6.62;;
48897;SDS011;34713;50.038;20.000;2022-12-29T17:03:27;14.38;;;6.87;;
48897;SDS011;34713;50.038;20.000;2022-12-29T17:05:59;13.83;;;6.90;;
48897;SDS011;34713;50.038;20.000;2022-12-29T17:08:25;17.48;;;7.67;;
48897;SDS011;34713;50.038;20.000;2022-12-29T17:10:52;13.53;;;7.75;;
48897;SDS011;34713;50.038;20.000;2022-12-29T17:13:39;14.75;;;8.15;;
48897;SDS011;34713;50.038;20.000;2022-12-29T17:16:05;18.57;;;7.67;;
48897;SDS011;34713;50.038;20.000;2022-12-29T17:18:34;24.37;;;8.95;;
48897;SDS011;34713;50.038;20.000;2022-12-29T17:21:01;19.10;;;9.33;;
48897;SDS011;34713;50.038;20.000;2022-12-29T17:23:27;20.92;;;8.68;;
48897;SDS011;34713;50.038;20.000;2022-12-29T17:25:56;16.87;;;8.98;;
48897;SDS011;34713;50.038;20.000;2022-12-29T17:28:26;18.00;;;8.60;;
48897;SDS011;34713;50.038;20.000;2022-12-29T17:30:57;16.75;;;8.28;;
48897;SDS011;34713;50.038;20.000;2022-12-29T17:33:26;15.18;;;8.30;;
48897;SDS011;34713;50.038;20.000;2022-12-29T17:35:53;17.55;;;8.50;;
48897;SDS011;34713;50.038;20.000;2022-12-29T17:38:20;17.00;;;9.35;;
48897;SDS011;34713;50.038;20.000;2022-12-29T17:40:50;21.65;;;9.30;;
48897;SDS011;34713;50.038;20.000;2022-12-29T17:43:16;22.07;;;9.20;;
48897;SDS011;34713;50.038;20.000;2022-12-29T17:45:43;15.15;;;8.35;;
48897;SDS011;34713;50.038;20.000;2022-12-29T17:48:12;17.37;;;9.08;;
48897;SDS011;34713;50.038;20.000;2022-12-29T17:50:40;20.02;;;9.73;;
48897;SDS011;34713;50.038;20.000;2022-12-29T17:53:11;15.28;;;8.48;;